sensor_id;sensor_type;location;lat;lon;timestamp;P1;durP1;ratioP1;P2;durP2;ratioP2
45887;SDS011;31595;51.418;7.572;2023-01-13T00:00:31;1.27;;;0.80;;
45887;SDS011;31595;51.418;7.572;2023-01-13T00:03:01;1.70;;;0.90;;
45887;SDS011;31595;51.418;7.572;2023-01-13T00:05:28;1.15;;;0.80;;
45887;SDS011;31595;51.418;7.572;2023-01-13T00:07:55;1.88;;;1.00;;
45887;SDS011;31595;51.418;7.572;2023-01-13T00:10:23;2.00;;;1.15;;
45887;SDS011;31595;51.418;7.572;2023-01-13T00:12:50;1.83;;;1.00;;
45887;SDS011;31595;51.418;7.572;2023-01-13T00:15:18;2.15;;;1.45;;
45887;SDS011;31595;51.418;7.572;2023-01-13T00:17:45;1.00;;;0.80;;
45887;SDS011;31595;51.418;7.572;2023-01-13T00:20:14;1.50;;;1.00;;
45887;SDS011;31595;51.418;7.572;2023-01-13T00:22:42;2.25;;;1.00;;
45887;SDS011;31595;51.418;7.572;2023-01-13T00:25:09;1.35;;;0.90;;
45887;SDS011;31595;51.418;7.572;2023-01-13T00:27:37;1.30;;;0.70;;
45887;SDS011;31595;51.418;7.572;2023-01-13T00:30:05;1.65;;;0.70;;
45887;SDS011;31595;51.418;7.572;2023-01-13T00:32:34;2.55;;;1.23;;
45887;SDS011;31595;51.418;7.572;2023-01-13T00:35:01;2.15;;;0.90;;
45887;SDS011;31595;51.418;7.572;2023-01-13T00:37:30;0.77;;;0.50;;
45887;SDS011;31595;51.418;7.572;2023-01-13T00:39:58;1.65;;;0.70;;
45887;SDS011;31595;51.418;7.572;2023-01-13T00:42:25;1.13;;;0.60;;
45887;SDS011;31595;51.418;7.572;2023-01-13T00:45:09;1.20;;;0.60;;
45887;SDS011;31595;51.418;7.572;2023-01-13T00:47:37;2.08;;;1.00;;
45887;SDS011;31595;51.418;7.572;2023-01-13T00:50:04;1.48;;;0.60;;
45887;SDS011;31595;51.418;7.572;2023-01-13T00:52:33;1.40;;;0.70;;
45887;SDS011;31595;51.418;7.572;2023-01-13T00:55:00;1.50;;;0.60;;
45887;SDS011;31595;51.418;7.572;2023-01-13T00:57:30;2.35;;;0.90;;
45887;SDS011;31595;51.418;7.572;2023-01-13T01:00:01;2.70;;;0.75;;
45887;SDS011;31595;51.418;7.572;2023-01-13T01:02:28;3.17;;;0.85;;
45887;SDS011;31595;51.418;7.572;2023-01-13T01:04:55;2.65;;;0.80;;
45887;SDS011;31595;51.418;7.572;2023-01-13T01:07:24;2.47;;;1.17;;
45887;SDS011;31595;51.418;7.572;2023-01-13T01:09:53;4.90;;;1.08;;
45887;SDS011;31595;51.418;7.572;2023-01-13T01:12:23;2.35;;;0.98;;
45887;SDS011;31595;51.418;7.572;2023-01-13T01:14:51;4.80;;;1.23;;
45887;SDS011;31595;51.418;7.572;2023-01-13T01:17:18;4.50;;;1.10;;
45887;SDS011;31595;51.418;7.572;2023-01-13T01:19:45;6.20;;;1.20;;
45887;SDS011;31595;51.418;7.572;2023-01-13T01:22:12;2.15;;;0.80;;
45887;SDS011;31595;51.418;7.572;2023-01-13T01:24:40;3.10;;;1.08;;
45887;SDS011;31595;51.418;7.572;2023-01-13T01:27:08;4.93;;;1.08;;
45887;SDS011;31595;51.418;7.572;2023-01-13T01:29:35;4.93;;;1.40;;
45887;SDS011;31595;51.418;7.572;2023-01-13T01:32:03;4.65;;;1.45;;
45887;SDS011;31595;51.418;7.572;2023-01-13T01:34:30;2.90;;;1.10;;
45887;SDS011;31595;51.418;7.572;2023-01-13T01:36:57;5.03;;;1.17;;
45887;SDS011;31595;51.418;7.572;2023-01-13T01:39:28;5.53;;;1.05;;
45887;SDS011;31595;51.418;7.572;2023-01-13T01:41:55;3.85;;;1.73;;
45887;SDS011;31595;51.418;7.572;2023-01-13T01:44:51;4.47;;;1.00;;
45887;SDS011;31595;51.418;7.572;2023-01-13T01:47:24;4.90;;;1.00;;
45887;SDS011;31595;51.418;7.572;2023-01-13T01:49:53;3.95;;;1.00;;
45887;SDS011;31595;51.418;7.572;2023-01-13T01:52:23;5.35;;;1.25;;
45887;SDS011;31595;51.418;7.572;2023-01-13T01:54:55;5.10;;;1.30;;
45887;SDS011;31595;51.418;7.572;2023-01-13T01:57:26;5.00;;;1.60;;
45887;SDS011;31595;51.418;7.572;2023-01-13T01:59:58;5.05;;;1.42;;
45887;SDS011;31595;51.418;7.572;2023-01-13T02:02:26;5.35;;;1.15;;
45887;SDS011;31595;51.418;7.572;2023-01-13T02:04:55;6.50;;;1.35;;
45887;SDS011;31595;51.418;7.572;2023-01-13T02:07:24;5.13;;;1.40;;
45887;SDS011;31595;51.418;7.572;2023-01-13T02:09:54;5.18;;;1.30;;
45887;SDS011;31595;51.418;7.572;2023-01-13T02:12:23;6.43;;;1.38;;
45887;SDS011;31595;51.418;7.572;2023-01-13T02:14:58;3.60;;;1.33;;
45887;SDS011;31595;51.418;7.572;2023-01-13T02:17:33;5.78;;;1.20;;
45887;SDS011;31595;51.418;7.572;2023-01-13T02:20:37;6.38;;;1.65;;
45887;SDS011;31595;51.418;7.572;2023-01-13T02:23:21;6.13;;;1.48;;
45887;SDS011;31595;51.418;7.572;2023-01-13T02:29:45;6.40;;;1.83;;
45887;SDS011;31595;51.418;7.572;2023-01-13T02:32:39;4.35;;;1.52;;
45887;SDS011;31595;51.418;7.572;2023-01-13T02:35:18;5.47;;;1.33;;
45887;SDS011;31595;51.418;7.572;2023-01-13T02:37:50;6.40;;;1.52;;
45887;SDS011;31595;51.418;7.572;2023-01-13T02:40:19;5.40;;;1.55;;
45887;SDS011;31595;51.418;7.572;2023-01-13T02:42:52;5.53;;;1.40;;
45887;SDS011;31595;51.418;7.572;2023-01-13T02:45:45;5.35;;;1.50;;
45887;SDS011;31595;51.418;7.572;2023-01-13T02:48:18;5.03;;;1.23;;
45887;SDS011;31595;51.418;7.572;2023-01-13T02:50:49;4.22;;;0.90;;
45887;SDS011;31595;51.418;7.572;2023-01-13T02:53:24;5.20;;;1.45;;
45887;SDS011;31595;51.418;7.572;2023-01-13T02:55:55;5.45;;;1.17;;
45887;SDS011;31595;51.418;7.572;2023-01-13T02:58:25;4.40;;;1.10;;
45887;SDS011;31595;51.418;7.572;2023-01-13T03:00:56;6.50;;;1.67;;
45887;SDS011;31595;51.418;7.572;2023-01-13T03:03:23;3.47;;;1.30;;
45887;SDS011;31595;51.418;7.572;2023-01-13T03:05:52;2.90;;;1.20;;
45887;SDS011;31595;51.418;7.572;2023-01-13T03:08:31;3.83;;;1.02;;
45887;SDS011;31595;51.418;7.572;2023-01-13T03:11:07;3.05;;;0.90;;
45887;SDS011;31595;51.418;7.572;2023-01-13T03:16:17;3.45;;;0.90;;
45887;SDS011;31595;51.418;7.572;2023-01-13T03:18:57;5.47;;;1.33;;
45887;SDS011;31595;51.418;7.572;2023-01-13T03:21:37;3.80;;;1.42;;
45887;SDS011;31595;51.418;7.572;2023-01-13T03:24:11;4.35;;;0.95;;
45887;SDS011;31595;51.418;7.572;2023-01-13T03:26:44;4.88;;;1.58;;
45887;SDS011;31595;51.418;7.572;2023-01-13T03:29:17;4.72;;;1.20;;
45887;SDS011;31595;51.418;7.572;2023-01-13T03:31:52;6.45;;;1.33;;
45887;SDS011;31595;51.418;7.572;2023-01-13T03:34:25;3.47;;;1.20;;
45887;SDS011;31595;51.418;7.572;2023-01-13T03:36:58;5.32;;;1.50;;
45887;SDS011;31595;51.418;7.572;2023-01-13T03:39:33;6.22;;;2.10;;
45887;SDS011;31595;51.418;7.572;2023-01-13T03:42:04;7.97;;;1.63;;
45887;SDS011;31595;51.418;7.572;2023-01-13T03:44:37;5.07;;;1.50;;
45887;SDS011;31595;51.418;7.572;2023-01-13T03:47:10;6.38;;;1.50;;
45887;SDS011;31595;51.418;7.572;2023-01-13T03:49:45;7.68;;;1.40;;
45887;SDS011;31595;51.418;7.572;2023-01-13T03:52:20;5.57;;;1.52;;
45887;SDS011;31595;51.418;7.572;2023-01-13T03:54:50;6.43;;;2.13;;
45887;SDS011;31595;51.418;7.572;2023-01-13T03:57:23;8.23;;;1.92;;
45887;SDS011;31595;51.418;7.572;2023-01-13T03:59:58;9.55;;;2.47;;
45887;SDS011;31595;51.418;7.572;2023-01-13T04:02:32;7.20;;;1.83;;
45887;SDS011;31595;51.418;7.572;2023-01-13T04:05:06;9.88;;;1.80;;
45887;SDS011;31595;51.418;7.572;2023-01-13T04:07:40;7.72;;;1.50;;
45887;SDS011;31595;51.418;7.572;2023-01-13T04:10:15;10.35;;;2.20;;
45887;SDS011;31595;51.418;7.572;2023-01-13T04:12:47;6.13;;;1.75;;
45887;SDS011;31595;51.418;7.572;2023-01-13T04:15:29;5.80;;;2.20;;
45887;SDS011;31595;51.418;7.572;2023-01-13T04:18:07;6.35;;;1.60;;
45887;SDS011;31595;51.418;7.572;2023-01-13T04:20:36;9.85;;;1.83;;
45887;SDS011;31595;51.418;7.572;2023-01-13T04:23:04;9.18;;;1.60;;
45887;SDS011;31595;51.418;7.572;2023-01-13T04:25:32;5.55;;;1.95;;
45887;SDS011;31595;51.418;7.572;2023-01-13T04:27:59;8.63;;;1.98;;
45887;SDS011;31595;51.418;7.572;2023-01-13T04:30:27;8.55;;;1.70;;
45887;SDS011;31595;51.418;7.572;2023-01-13T04:32:54;7.25;;;1.80;;
45887;SDS011;31595;51.418;7.572;2023-01-13T04:35:23;8.00;;;2.13;;
45887;SDS011;31595;51.418;7.572;2023-01-13T04:37:50;6.18;;;2.10;;
45887;SDS011;31595;51.418;7.572;2023-01-13T04:40:17;5.25;;;1.80;;
45887;SDS011;31595;51.418;7.572;2023-01-13T04:42:45;9.27;;;1.65;;
45887;SDS011;31595;51.418;7.572;2023-01-13T04:45:12;5.00;;;2.03;;
45887;SDS011;31595;51.418;7.572;2023-01-13T04:47:40;7.28;;;1.80;;
45887;SDS011;31595;51.418;7.572;2023-01-13T04:50:08;6.32;;;1.55;;
45887;SDS011;31595;51.418;7.572;2023-01-13T04:52:55;6.25;;;1.98;;
45887;SDS011;31595;51.418;7.572;2023-01-13T04:55:23;6.95;;;1.90;;
45887;SDS011;31595;51.418;7.572;2023-01-13T04:57:50;7.45;;;1.67;;
45887;SDS011;31595;51.418;7.572;2023-01-13T05:00:19;9.57;;;1.90;;
45887;SDS011;31595;51.418;7.572;2023-01-13T05:05:15;8.73;;;1.73;;
45887;SDS011;31595;51.418;7.572;2023-01-13T05:07:43;10.27;;;2.10;;
45887;SDS011;31595;51.418;7.572;2023-01-13T05:10:12;17.42;;;2.90;;
45887;SDS011;31595;51.418;7.572;2023-01-13T05:12:40;7.43;;;1.70;;
45887;SDS011;31595;51.418;7.572;2023-01-13T05:15:24;9.55;;;2.10;;
45887;SDS011;31595;51.418;7.572;2023-01-13T05:18:09;9.82;;;2.35;;
45887;SDS011;31595;51.418;7.572;2023-01-13T05:20:36;8.85;;;1.77;;
45887;SDS011;31595;51.418;7.572;2023-01-13T05:23:04;6.03;;;1.83;;
45887;SDS011;31595;51.418;7.572;2023-01-13T05:25:50;8.77;;;2.03;;
45887;SDS011;31595;51.418;7.572;2023-01-13T05:28:17;8.55;;;2.13;;
45887;SDS011;31595;51.418;7.572;2023-01-13T05:30:45;11.77;;;2.42;;
45887;SDS011;31595;51.418;7.572;2023-01-13T05:33:14;12.63;;;2.13;;
45887;SDS011;31595;51.418;7.572;2023-01-13T05:35:43;9.03;;;2.47;;
45887;SDS011;31595;51.418;7.572;2023-01-13T05:38:11;13.77;;;3.83;;
45887;SDS011;31595;51.418;7.572;2023-01-13T05:40:39;10.95;;;2.90;;
45887;SDS011;31595;51.418;7.572;2023-01-13T05:43:26;11.55;;;2.20;;
45887;SDS011;31595;51.418;7.572;2023-01-13T05:45:55;10.80;;;3.05;;
45887;SDS011;31595;51.418;7.572;2023-01-13T05:48:24;11.45;;;3.15;;
45887;SDS011;31595;51.418;7.572;2023-01-13T05:50:52;15.07;;;2.85;;
45887;SDS011;31595;51.418;7.572;2023-01-13T05:53:20;10.23;;;2.80;;
45887;SDS011;31595;51.418;7.572;2023-01-13T05:55:48;8.40;;;2.17;;
45887;SDS011;31595;51.418;7.572;2023-01-13T05:58:17;9.55;;;2.63;;
45887;SDS011;31595;51.418;7.572;2023-01-13T06:00:47;11.35;;;2.63;;
45887;SDS011;31595;51.418;7.572;2023-01-13T06:03:15;9.15;;;2.85;;
45887;SDS011;31595;51.418;7.572;2023-01-13T06:05:44;7.50;;;2.10;;
45887;SDS011;31595;51.418;7.572;2023-01-13T06:08:12;15.25;;;2.65;;
45887;SDS011;31595;51.418;7.572;2023-01-13T06:10:40;10.82;;;3.58;;
45887;SDS011;31595;51.418;7.572;2023-01-13T06:13:07;6.15;;;2.58;;
45887;SDS011;31595;51.418;7.572;2023-01-13T06:15:34;9.15;;;2.70;;
45887;SDS011;31595;51.418;7.572;2023-01-13T06:18:03;10.77;;;2.70;;
45887;SDS011;31595;51.418;7.572;2023-01-13T06:20:31;15.20;;;3.23;;
45887;SDS011;31595;51.418;7.572;2023-01-13T06:22:58;10.43;;;2.92;;
45887;SDS011;31595;51.418;7.572;2023-01-13T06:25:35;10.13;;;3.38;;
45887;SDS011;31595;51.418;7.572;2023-01-13T06:28:08;11.90;;;3.53;;
45887;SDS011;31595;51.418;7.572;2023-01-13T06:30:37;12.40;;;3.72;;
45887;SDS011;31595;51.418;7.572;2023-01-13T06:33:10;9.95;;;3.08;;
45887;SDS011;31595;51.418;7.572;2023-01-13T06:35:40;9.45;;;3.42;;
45887;SDS011;31595;51.418;7.572;2023-01-13T06:38:12;12.32;;;2.75;;
45887;SDS011;31595;51.418;7.572;2023-01-13T06:40:43;12.40;;;3.17;;
45887;SDS011;31595;51.418;7.572;2023-01-13T06:43:10;8.13;;;2.50;;
45887;SDS011;31595;51.418;7.572;2023-01-13T06:45:40;14.23;;;3.05;;
45887;SDS011;31595;51.418;7.572;2023-01-13T06:48:14;14.25;;;2.72;;
45887;SDS011;31595;51.418;7.572;2023-01-13T06:50:42;6.10;;;2.10;;
45887;SDS011;31595;51.418;7.572;2023-01-13T06:53:09;10.77;;;2.53;;
45887;SDS011;31595;51.418;7.572;2023-01-13T06:55:37;7.15;;;2.10;;
45887;SDS011;31595;51.418;7.572;2023-01-13T06:58:04;8.25;;;2.28;;
45887;SDS011;31595;51.418;7.572;2023-01-13T07:00:31;10.05;;;2.50;;
45887;SDS011;31595;51.418;7.572;2023-01-13T07:03:07;5.90;;;2.25;;
45887;SDS011;31595;51.418;7.572;2023-01-13T07:05:39;6.55;;;2.30;;
45887;SDS011;31595;51.418;7.572;2023-01-13T07:08:08;10.75;;;2.63;;
45887;SDS011;31595;51.418;7.572;2023-01-13T07:10:36;11.43;;;2.90;;
45887;SDS011;31595;51.418;7.572;2023-01-13T07:13:04;8.25;;;2.65;;
45887;SDS011;31595;51.418;7.572;2023-01-13T07:15:53;6.47;;;2.00;;
45887;SDS011;31595;51.418;7.572;2023-01-13T07:18:22;9.75;;;2.58;;
45887;SDS011;31595;51.418;7.572;2023-01-13T07:20:53;6.80;;;2.92;;
45887;SDS011;31595;51.418;7.572;2023-01-13T07:23:22;11.57;;;2.53;;
45887;SDS011;31595;51.418;7.572;2023-01-13T07:25:49;8.80;;;2.00;;
45887;SDS011;31595;51.418;7.572;2023-01-13T07:28:16;6.50;;;1.90;;
45887;SDS011;31595;51.418;7.572;2023-01-13T07:30:44;13.27;;;6.75;;
45887;SDS011;31595;51.418;7.572;2023-01-13T07:33:11;13.15;;;3.75;;
45887;SDS011;31595;51.418;7.572;2023-01-13T07:35:38;10.57;;;2.35;;
45887;SDS011;31595;51.418;7.572;2023-01-13T07:38:07;9.52;;;2.83;;
45887;SDS011;31595;51.418;7.572;2023-01-13T07:40:34;9.57;;;2.10;;
45887;SDS011;31595;51.418;7.572;2023-01-13T07:43:02;8.05;;;2.03;;
45887;SDS011;31595;51.418;7.572;2023-01-13T07:45:46;9.95;;;2.08;;
45887;SDS011;31595;51.418;7.572;2023-01-13T07:48:13;9.00;;;1.90;;
45887;SDS011;31595;51.418;7.572;2023-01-13T07:50:41;11.10;;;2.50;;
45887;SDS011;31595;51.418;7.572;2023-01-13T07:53:09;7.40;;;2.03;;
45887;SDS011;31595;51.418;7.572;2023-01-13T07:55:39;8.80;;;2.10;;
45887;SDS011;31595;51.418;7.572;2023-01-13T07:58:07;8.23;;;2.10;;
45887;SDS011;31595;51.418;7.572;2023-01-13T08:00:34;10.98;;;1.85;;
45887;SDS011;31595;51.418;7.572;2023-01-13T08:03:01;12.60;;;2.72;;
45887;SDS011;31595;51.418;7.572;2023-01-13T08:05:29;5.45;;;1.83;;
45887;SDS011;31595;51.418;7.572;2023-01-13T08:07:56;8.77;;;2.10;;
45887;SDS011;31595;51.418;7.572;2023-01-13T08:10:25;6.75;;;2.08;;
45887;SDS011;31595;51.418;7.572;2023-01-13T08:12:52;7.68;;;2.13;;
45887;SDS011;31595;51.418;7.572;2023-01-13T08:15:37;11.23;;;2.30;;
45887;SDS011;31595;51.418;7.572;2023-01-13T08:18:05;9.52;;;2.40;;
45887;SDS011;31595;51.418;7.572;2023-01-13T08:20:32;10.77;;;2.70;;
45887;SDS011;31595;51.418;7.572;2023-01-13T08:22:59;6.60;;;1.65;;
45887;SDS011;31595;51.418;7.572;2023-01-13T08:25:35;7.57;;;2.30;;
45887;SDS011;31595;51.418;7.572;2023-01-13T08:28:03;15.77;;;5.22;;
45887;SDS011;31595;51.418;7.572;2023-01-13T08:30:30;8.13;;;3.17;;
45887;SDS011;31595;51.418;7.572;2023-01-13T08:32:58;9.30;;;1.95;;
45887;SDS011;31595;51.418;7.572;2023-01-13T08:35:25;8.52;;;2.10;;
45887;SDS011;31595;51.418;7.572;2023-01-13T08:37:52;9.85;;;1.95;;
45887;SDS011;31595;51.418;7.572;2023-01-13T08:40:19;10.13;;;2.22;;
45887;SDS011;31595;51.418;7.572;2023-01-13T08:42:48;8.82;;;2.70;;
45887;SDS011;31595;51.418;7.572;2023-01-13T08:45:17;7.85;;;1.95;;
45887;SDS011;31595;51.418;7.572;2023-01-13T08:47:45;8.07;;;2.35;;
45887;SDS011;31595;51.418;7.572;2023-01-13T08:50:12;8.88;;;1.75;;
45887;SDS011;31595;51.418;7.572;2023-01-13T08:52:40;8.25;;;2.63;;
45887;SDS011;31595;51.418;7.572;2023-01-13T08:55:08;8.32;;;2.20;;
45887;SDS011;31595;51.418;7.572;2023-01-13T08:57:36;7.85;;;2.53;;
45887;SDS011;31595;51.418;7.572;2023-01-13T09:00:05;9.40;;;2.15;;
45887;SDS011;31595;51.418;7.572;2023-01-13T09:02:33;8.07;;;2.35;;
45887;SDS011;31595;51.418;7.572;2023-01-13T09:05:01;9.60;;;2.15;;
45887;SDS011;31595;51.418;7.572;2023-01-13T09:07:29;10.95;;;2.30;;
45887;SDS011;31595;51.418;7.572;2023-01-13T09:09:56;12.18;;;2.60;;
45887;SDS011;31595;51.418;7.572;2023-01-13T09:12:23;6.72;;;2.20;;
45887;SDS011;31595;51.418;7.572;2023-01-13T09:15:10;11.55;;;2.95;;
45887;SDS011;31595;51.418;7.572;2023-01-13T09:17:38;9.45;;;2.40;;
45887;SDS011;31595;51.418;7.572;2023-01-13T09:20:05;13.32;;;3.08;;
45887;SDS011;31595;51.418;7.572;2023-01-13T09:22:33;10.00;;;2.35;;
45887;SDS011;31595;51.418;7.572;2023-01-13T09:25:02;13.40;;;3.00;;
45887;SDS011;31595;51.418;7.572;2023-01-13T09:27:30;10.93;;;3.25;;
45887;SDS011;31595;51.418;7.572;2023-01-13T09:29:57;8.40;;;2.25;;
45887;SDS011;31595;51.418;7.572;2023-01-13T09:32:25;9.75;;;2.20;;
45887;SDS011;31595;51.418;7.572;2023-01-13T09:34:53;9.23;;;2.42;;
45887;SDS011;31595;51.418;7.572;2023-01-13T09:37:25;9.35;;;2.40;;
45887;SDS011;31595;51.418;7.572;2023-01-13T09:39:53;11.18;;;2.97;;
45887;SDS011;31595;51.418;7.572;2023-01-13T09:42:22;11.23;;;2.80;;
45887;SDS011;31595;51.418;7.572;2023-01-13T09:45:14;11.48;;;2.60;;
45887;SDS011;31595;51.418;7.572;2023-01-13T09:47:47;11.20;;;3.08;;
45887;SDS011;31595;51.418;7.572;2023-01-13T09:50:30;9.35;;;2.40;;
45887;SDS011;31595;51.418;7.572;2023-01-13T09:53:09;11.00;;;3.25;;
45887;SDS011;31595;51.418;7.572;2023-01-13T09:55:40;11.85;;;2.92;;
45887;SDS011;31595;51.418;7.572;2023-01-13T09:58:10;10.93;;;2.45;;
45887;SDS011;31595;51.418;7.572;2023-01-13T10:00:42;11.60;;;3.25;;
45887;SDS011;31595;51.418;7.572;2023-01-13T10:03:20;15.20;;;3.10;;
45887;SDS011;31595;51.418;7.572;2023-01-13T10:05:54;11.75;;;3.88;;
45887;SDS011;31595;51.418;7.572;2023-01-13T10:08:30;10.57;;;2.72;;
45887;SDS011;31595;51.418;7.572;2023-01-13T10:13:46;10.52;;;2.75;;
45887;SDS011;31595;51.418;7.572;2023-01-13T10:16:20;11.48;;;2.85;;
45887;SDS011;31595;51.418;7.572;2023-01-13T10:19:02;11.77;;;2.58;;
45887;SDS011;31595;51.418;7.572;2023-01-13T10:21:42;11.75;;;2.83;;
45887;SDS011;31595;51.418;7.572;2023-01-13T10:24:28;10.98;;;2.92;;
45887;SDS011;31595;51.418;7.572;2023-01-13T10:27:09;20.48;;;4.20;;
45887;SDS011;31595;51.418;7.572;2023-01-13T10:29:43;23.48;;;3.97;;
45887;SDS011;31595;51.418;7.572;2023-01-13T10:32:10;12.23;;;3.33;;
45887;SDS011;31595;51.418;7.572;2023-01-13T10:34:45;8.02;;;3.15;;
45887;SDS011;31595;51.418;7.572;2023-01-13T10:37:18;18.13;;;3.90;;
45887;SDS011;31595;51.418;7.572;2023-01-13T10:39:46;11.63;;;2.65;;
45887;SDS011;31595;51.418;7.572;2023-01-13T10:42:15;11.98;;;3.58;;
45887;SDS011;31595;51.418;7.572;2023-01-13T10:44:47;13.13;;;3.47;;
45887;SDS011;31595;51.418;7.572;2023-01-13T10:47:22;13.57;;;2.72;;
45887;SDS011;31595;51.418;7.572;2023-01-13T10:50:03;17.40;;;3.78;;
45887;SDS011;31595;51.418;7.572;2023-01-13T10:52:57;12.00;;;3.17;;
45887;SDS011;31595;51.418;7.572;2023-01-13T10:55:27;12.80;;;3.23;;
45887;SDS011;31595;51.418;7.572;2023-01-13T10:57:56;15.98;;;3.28;;
45887;SDS011;31595;51.418;7.572;2023-01-13T11:00:37;14.70;;;3.63;;
45887;SDS011;31595;51.418;7.572;2023-01-13T11:03:10;8.68;;;3.00;;
45887;SDS011;31595;51.418;7.572;2023-01-13T11:05:48;10.95;;;3.05;;
45887;SDS011;31595;51.418;7.572;2023-01-13T11:08:17;12.93;;;2.90;;
45887;SDS011;31595;51.418;7.572;2023-01-13T11:10:48;14.40;;;3.53;;
45887;SDS011;31595;51.418;7.572;2023-01-13T11:15:52;13.40;;;3.05;;
45887;SDS011;31595;51.418;7.572;2023-01-13T11:18:37;13.13;;;3.17;;
45887;SDS011;31595;51.418;7.572;2023-01-13T11:21:11;10.77;;;3.38;;
45887;SDS011;31595;51.418;7.572;2023-01-13T11:23:46;12.15;;;3.28;;
45887;SDS011;31595;51.418;7.572;2023-01-13T11:26:19;13.20;;;3.60;;
45887;SDS011;31595;51.418;7.572;2023-01-13T11:28:51;13.73;;;3.00;;
45887;SDS011;31595;51.418;7.572;2023-01-13T11:31:23;8.88;;;2.35;;
45887;SDS011;31595;51.418;7.572;2023-01-13T11:33:57;7.95;;;2.42;;
45887;SDS011;31595;51.418;7.572;2023-01-13T11:36:32;9.98;;;2.92;;
45887;SDS011;31595;51.418;7.572;2023-01-13T11:39:09;10.05;;;2.67;;
45887;SDS011;31595;51.418;7.572;2023-01-13T11:41:44;12.98;;;3.28;;
45887;SDS011;31595;51.418;7.572;2023-01-13T11:44:37;13.80;;;3.53;;
45887;SDS011;31595;51.418;7.572;2023-01-13T11:47:08;15.10;;;3.67;;
45887;SDS011;31595;51.418;7.572;2023-01-13T11:52:07;12.57;;;3.67;;
45887;SDS011;31595;51.418;7.572;2023-01-13T11:54:57;9.75;;;3.00;;
45887;SDS011;31595;51.418;7.572;2023-01-13T11:57:36;13.02;;;3.72;;
45887;SDS011;31595;51.418;7.572;2023-01-13T12:00:30;14.10;;;8.27;;
45887;SDS011;31595;51.418;7.572;2023-01-13T12:03:14;44.55;;;41.80;;
45887;SDS011;31595;51.418;7.572;2023-01-13T12:05:54;11.15;;;2.70;;
45887;SDS011;31595;51.418;7.572;2023-01-13T12:08:36;9.40;;;2.63;;
45887;SDS011;31595;51.418;7.572;2023-01-13T12:11:15;13.70;;;4.00;;
45887;SDS011;31595;51.418;7.572;2023-01-13T12:13:53;9.98;;;2.90;;
45887;SDS011;31595;51.418;7.572;2023-01-13T12:16:34;15.10;;;3.05;;
45887;SDS011;31595;51.418;7.572;2023-01-13T12:19:20;10.88;;;2.75;;
45887;SDS011;31595;51.418;7.572;2023-01-13T12:21:57;12.40;;;2.90;;
45887;SDS011;31595;51.418;7.572;2023-01-13T12:24:31;11.32;;;3.08;;
45887;SDS011;31595;51.418;7.572;2023-01-13T12:27:04;10.32;;;3.45;;
45887;SDS011;31595;51.418;7.572;2023-01-13T12:29:39;12.32;;;2.70;;
45887;SDS011;31595;51.418;7.572;2023-01-13T12:32:09;10.77;;;2.78;;
45887;SDS011;31595;51.418;7.572;2023-01-13T12:34:47;10.05;;;2.97;;
45887;SDS011;31595;51.418;7.572;2023-01-13T12:37:24;11.98;;;2.92;;
45887;SDS011;31595;51.418;7.572;2023-01-13T12:40:00;13.27;;;3.17;;
45887;SDS011;31595;51.418;7.572;2023-01-13T12:42:44;15.73;;;3.30;;
45887;SDS011;31595;51.418;7.572;2023-01-13T12:45:34;13.35;;;3.53;;
45887;SDS011;31595;51.418;7.572;2023-01-13T12:48:01;12.18;;;3.22;;
45887;SDS011;31595;51.418;7.572;2023-01-13T12:50:35;13.82;;;3.67;;
45887;SDS011;31595;51.418;7.572;2023-01-13T13:02:24;12.02;;;2.70;;
45887;SDS011;31595;51.418;7.572;2023-01-13T13:04:58;7.18;;;1.92;;
45887;SDS011;31595;51.418;7.572;2023-01-13T13:07:47;5.03;;;1.50;;
45887;SDS011;31595;51.418;7.572;2023-01-13T13:10:19;5.45;;;2.00;;
45887;SDS011;31595;51.418;7.572;2023-01-13T13:12:56;6.50;;;2.40;;
45887;SDS011;31595;51.418;7.572;2023-01-13T13:15:43;9.97;;;2.80;;
45887;SDS011;31595;51.418;7.572;2023-01-13T13:18:23;8.70;;;2.25;;
45887;SDS011;31595;51.418;7.572;2023-01-13T13:21:00;9.75;;;2.20;;
45887;SDS011;31595;51.418;7.572;2023-01-13T13:23:36;9.55;;;1.95;;
45887;SDS011;31595;51.418;7.572;2023-01-13T13:26:27;7.25;;;2.05;;
45887;SDS011;31595;51.418;7.572;2023-01-13T13:32:03;6.47;;;1.40;;
45887;SDS011;31595;51.418;7.572;2023-01-13T13:35:00;6.93;;;1.58;;
45887;SDS011;31595;51.418;7.572;2023-01-13T13:37:51;6.13;;;2.65;;
45887;SDS011;31595;51.418;7.572;2023-01-13T13:40:50;7.03;;;3.55;;
45887;SDS011;31595;51.418;7.572;2023-01-13T13:43:38;7.03;;;4.35;;
45887;SDS011;31595;51.418;7.572;2023-01-13T13:46:25;17.52;;;16.63;;
45887;SDS011;31595;51.418;7.572;2023-01-13T13:49:15;6.50;;;3.63;;
45887;SDS011;31595;51.418;7.572;2023-01-13T13:51:44;7.53;;;2.65;;
45887;SDS011;31595;51.418;7.572;2023-01-13T13:54:16;7.43;;;2.92;;
45887;SDS011;31595;51.418;7.572;2023-01-13T13:56:48;10.05;;;2.67;;
45887;SDS011;31595;51.418;7.572;2023-01-13T13:59:18;14.10;;;2.40;;
45887;SDS011;31595;51.418;7.572;2023-01-13T14:01:49;13.07;;;3.85;;
45887;SDS011;31595;51.418;7.572;2023-01-13T14:04:27;14.93;;;3.22;;
45887;SDS011;31595;51.418;7.572;2023-01-13T14:06:56;8.60;;;2.30;;
45887;SDS011;31595;51.418;7.572;2023-01-13T14:09:27;9.38;;;3.15;;
45887;SDS011;31595;51.418;7.572;2023-01-13T14:12:13;8.57;;;2.65;;
45887;SDS011;31595;51.418;7.572;2023-01-13T14:14:43;12.98;;;3.28;;
45887;SDS011;31595;51.418;7.572;2023-01-13T14:17:18;12.38;;;3.50;;
45887;SDS011;31595;51.418;7.572;2023-01-13T14:19:54;10.40;;;3.05;;
45887;SDS011;31595;51.418;7.572;2023-01-13T14:22:26;13.68;;;3.38;;
45887;SDS011;31595;51.418;7.572;2023-01-13T14:27:23;12.95;;;3.28;;
45887;SDS011;31595;51.418;7.572;2023-01-13T14:32:21;12.30;;;3.15;;
45887;SDS011;31595;51.418;7.572;2023-01-13T14:34:50;10.23;;;2.95;;
45887;SDS011;31595;51.418;7.572;2023-01-13T14:37:23;11.77;;;3.20;;
45887;SDS011;31595;51.418;7.572;2023-01-13T14:39:51;12.43;;;3.35;;
45887;SDS011;31595;51.418;7.572;2023-01-13T14:42:18;13.90;;;3.53;;
45887;SDS011;31595;51.418;7.572;2023-01-13T14:44:47;12.02;;;3.20;;
45887;SDS011;31595;51.418;7.572;2023-01-13T14:47:17;13.32;;;3.10;;
45887;SDS011;31595;51.418;7.572;2023-01-13T14:49:51;11.90;;;3.25;;
45887;SDS011;31595;51.418;7.572;2023-01-13T14:52:29;9.90;;;3.17;;
45887;SDS011;31595;51.418;7.572;2023-01-13T14:58:22;8.65;;;3.08;;
45887;SDS011;31595;51.418;7.572;2023-01-13T15:00:51;8.10;;;2.83;;
45887;SDS011;31595;51.418;7.572;2023-01-13T15:03:39;8.90;;;3.03;;
45887;SDS011;31595;51.418;7.572;2023-01-13T15:06:20;9.82;;;2.70;;
45887;SDS011;31595;51.418;7.572;2023-01-13T15:09:11;8.82;;;3.42;;
45887;SDS011;31595;51.418;7.572;2023-01-13T15:11:38;8.02;;;2.88;;
45887;SDS011;31595;51.418;7.572;2023-01-13T15:14:08;7.03;;;2.35;;
45887;SDS011;31595;51.418;7.572;2023-01-13T15:16:36;5.65;;;2.50;;
45887;SDS011;31595;51.418;7.572;2023-01-13T15:19:04;6.60;;;2.72;;
45887;SDS011;31595;51.418;7.572;2023-01-13T15:21:31;10.82;;;3.53;;
45887;SDS011;31595;51.418;7.572;2023-01-13T15:23:59;10.38;;;3.10;;
45887;SDS011;31595;51.418;7.572;2023-01-13T15:26:28;10.07;;;3.40;;
45887;SDS011;31595;51.418;7.572;2023-01-13T15:28:56;9.65;;;3.35;;
45887;SDS011;31595;51.418;7.572;2023-01-13T15:31:25;11.35;;;3.63;;
45887;SDS011;31595;51.418;7.572;2023-01-13T15:33:53;10.48;;;4.05;;
45887;SDS011;31595;51.418;7.572;2023-01-13T15:36:22;15.77;;;4.85;;
45887;SDS011;31595;51.418;7.572;2023-01-13T15:38:52;17.08;;;5.10;;
45887;SDS011;31595;51.418;7.572;2023-01-13T15:41:20;11.00;;;4.40;;
45887;SDS011;31595;51.418;7.572;2023-01-13T15:44:03;16.40;;;4.85;;
45887;SDS011;31595;51.418;7.572;2023-01-13T15:46:48;14.43;;;5.43;;
45887;SDS011;31595;51.418;7.572;2023-01-13T15:49:19;13.02;;;4.85;;
45887;SDS011;31595;51.418;7.572;2023-01-13T15:51:50;13.43;;;4.57;;